Greenfield, Wisconsin
Current Conditions -  °F | °C
As of 9:52 AM on Monday 26 Jan 2015 (Local Time) from KMKE Reporting Station
Broken Clouds Broken Clouds  
Wind Chill: 15°   Ceiling: 7000
Heat Index: 24°   Visibility: 9mi
Dew Point: 15°   Wind: 8mph
Humidity: 69%   Direction: 190°S
Pressure: 29.93"   Gusts: NA
Location:  42.97°N, 88°W
Report Text: KMKE 261552Z 19007KT 9SM BKN070 BKN190 M04/M09 A2993 RMK AO2 SLP146 T10441094
Loading
Personal Weather Stations






























Interactive Weather Map New forecast layout! Learn more

10-Day Weather Forecast

Advertisements
Track Severe Weather on mobile